Time;durP1;ratioP1;P1;durP2;ratioP2;P2;SDS_P1;SDS_P2;PMS_P1;PMS_P2;Temp;Humidity;BMP_temperature;BMP_pressure;BME280_temperature;BME280_humidity;BME280_pressure;Samples;Min_cycle;Max_cycle;Signal;HPM_P1;HPM_P2
2022/12/28 00:02:25;;;;;;;10.17;9.23;;;;;;;-3.14;100.00;97906.75;5004955;28;20832;-71
2022/12/28 00:04:52;;;;;;;10.80;9.80;;;;;;;-3.20;100.00;97890.59;4987779;28;20676;-71
2022/12/28 00:07:20;;;;;;;9.70;8.80;;;;;;;-3.21;100.00;97888.09;5000865;28;20475;-71
2022/12/28 00:09:47;;;;;;;9.90;8.83;;;;;;;-3.22;100.00;97886.41;4960310;28;20220;-73
2022/12/28 00:12:15;;;;;;;10.07;9.07;;;;;;;-3.23;100.00;97895.09;5005418;28;20481;-73
2022/12/28 00:14:44;;;;;;;10.50;9.40;;;;;;;-3.26;100.00;97888.31;5004792;28;20212;-74
2022/12/28 00:17:12;;;;;;;10.20;9.13;;;;;;;-3.27;100.00;97884.03;5001761;28;20263;-73
2022/12/28 00:19:40;;;;;;;12.53;9.83;;;;;;;-3.23;100.00;97888.16;4988537;28;20214;-74
2022/12/28 00:22:07;;;;;;;10.27;9.37;;;;;;;-3.18;100.00;97898.28;4999276;28;21062;-72
2022/12/28 00:24:35;;;;;;;11.83;9.53;;;;;;;-3.23;100.00;97889.91;4959414;28;20212;-74
2022/12/28 00:27:03;;;;;;;9.87;9.07;;;;;;;-3.17;100.00;97894.78;5001119;28;20523;-72
2022/12/28 00:29:30;;;;;;;11.83;10.83;;;;;;;-3.20;100.00;97887.16;4997516;28;20201;-70
2022/12/28 00:31:59;;;;;;;11.03;9.93;;;;;;;-3.20;100.00;97892.34;4999674;28;20784;-73
2022/12/28 00:34:27;;;;;;;11.83;10.63;;;;;;;-3.21;100.00;97888.09;4990615;28;20721;-72
2022/12/28 00:36:55;;;;;;;11.07;10.07;;;;;;;-3.24;100.00;97881.28;4986696;28;20532;-73
2022/12/28 00:39:39;;;;;;;10.27;9.30;;;;;;;-3.21;100.00;97890.69;4966655;28;20672;-73
2022/12/28 00:42:06;;;;;;;10.97;9.83;;;;;;;-3.19;100.00;97888.84;5005339;28;20232;-74
2022/12/28 00:44:34;;;;;;;10.87;9.87;;;;;;;-3.14;100.00;97892.03;4960093;28;20470;-73
2022/12/28 00:47:03;;;;;;;11.47;10.17;;;;;;;-3.11;100.00;97888.44;5005600;28;20755;-69
2022/12/28 00:49:30;;;;;;;10.77;9.70;;;;;;;-3.11;100.00;97884.09;5008589;28;20438;-73
2022/12/28 00:51:58;;;;;;;10.57;8.90;;;;;;;-3.08;100.00;97883.09;5006061;28;20230;-72
2022/12/28 00:54:25;;;;;;;10.97;9.87;;;;;;;-3.02;100.00;97881.94;5007074;28;20204;-72
2022/12/28 00:56:53;;;;;;;10.90;9.90;;;;;;;-3.20;100.00;97875.06;4994242;28;20536;-73
2022/12/28 00:59:20;;;;;;;11.33;10.13;;;;;;;-3.20;100.00;97875.06;4966594;28;20275;-72
2022/12/28 01:01:48;;;;;;;13.50;9.40;;;;;;;-3.21;100.00;97875.13;5009548;28;20212;-71
2022/12/28 01:04:17;;;;;;;10.87;9.87;;;;;;;-3.17;100.00;97863.66;4996271;28;20317;-73
2022/12/28 01:06:45;;;;;;;9.80;8.90;;;;;;;-3.03;100.00;97875.91;5007775;28;20220;-73
2022/12/28 01:09:12;;;;;;;9.20;8.30;;;;;;;-2.91;100.00;97867.47;5006398;28;20246;-75
2022/12/28 01:11:40;;;;;;;10.03;9.13;;;;;;;-2.79;100.00;97865.97;5008517;28;20489;-75
2022/12/28 01:14:08;;;;;;;11.17;8.50;;;;;;;-2.80;100.00;97848.72;5002849;28;20219;-70
2022/12/28 01:16:36;;;;;;;9.27;8.30;;;;;;;-2.69;100.00;97849.91;4959690;28;20469;-71
2022/12/28 01:19:06;;;;;;;11.40;10.33;;;;;;;-2.74;100.00;97857.94;5001105;28;20308;-70
2022/12/28 01:21:35;;;;;;;9.80;9.07;;;;;;;-2.69;100.00;97862.88;4999343;28;20419;-70
2022/12/28 01:24:06;;;;;;;11.77;9.77;;;;;;;-2.66;100.00;97858.34;4972841;28;20474;-71
2022/12/28 01:26:34;;;;;;;11.77;9.37;;;;;;;-2.58;100.00;97854.50;4996056;28;20497;-72
2022/12/28 01:29:02;;;;;;;9.97;9.07;;;;;;;-2.54;100.00;97862.03;5003130;28;20219;-74
2022/12/28 01:31:29;;;;;;;11.63;9.70;;;;;;;-2.59;100.00;97853.69;4959518;28;20459;-74
2022/12/28 01:33:57;;;;;;;11.40;9.63;;;;;;;-2.66;100.00;97850.56;5003611;28;20539;-74
2022/12/28 01:36:26;;;;;;;11.17;10.10;;;;;;;-2.68;100.00;97847.22;4993252;28;22179;-72
2022/12/28 01:38:56;;;;;;;10.17;9.13;;;;;;;-2.67;100.00;97835.94;5009688;28;20208;-74
2022/12/28 01:41:26;;;;;;;11.17;8.97;;;;;;;-2.60;100.00;97844.22;5000731;28;20559;-73
2022/12/28 01:44:31;;;;;;;10.43;9.53;;;;;;;-2.59;100.00;97837.25;5006377;28;20208;-72
2022/12/28 01:47:02;;;;;;;11.37;10.17;;;;;;;-2.58;100.00;97831.16;4959899;28;20267;-73
2022/12/28 01:49:31;;;;;;;10.83;9.83;;;;;;;-2.68;100.00;97826.47;5003505;28;20579;-75
2022/12/28 01:52:02;;;;;;;10.93;9.67;;;;;;;-2.76;100.00;97832.06;4997496;28;20898;-73
2022/12/28 01:54:33;;;;;;;10.13;9.33;;;;;;;-2.83;100.00;97835.13;5000930;28;20205;-75
2022/12/28 01:57:02;;;;;;;10.50;9.50;;;;;;;-2.83;100.00;97828.16;4990218;28;20228;-72
2022/12/28 01:59:32;;;;;;;10.43;9.53;;;;;;;-2.85;100.00;97827.41;5001770;28;20216;-75
2022/12/28 02:01:59;;;;;;;10.27;9.00;;;;;;;-2.83;100.00;97819.56;4963341;28;20421;-73
2022/12/28 02:04:28;;;;;;;10.03;9.10;;;;;;;-2.83;100.00;97814.38;4995087;28;20229;-74
2022/12/28 02:06:56;;;;;;;9.87;9.00;;;;;;;-2.73;100.00;97810.34;4998128;28;20848;-72
2022/12/28 02:09:26;;;;;;;12.37;9.93;;;;;;;-2.66;100.00;97795.25;5000643;28;20644;-72
2022/12/28 02:11:55;;;;;;;10.63;9.63;;;;;;;-2.60;100.00;97787.13;5011413;28;20505;-73
2022/12/28 02:14:23;;;;;;;11.20;9.67;;;;;;;-2.53;100.00;97790.19;5002360;28;20216;-74
2022/12/28 02:16:50;;;;;;;10.47;9.57;;;;;;;-2.59;100.00;97782.78;4957336;28;21445;-69
2022/12/28 02:19:24;;;;;;;11.00;9.97;;;;;;;-2.63;100.00;97782.13;4980520;28;20664;-74
2022/12/28 02:22:13;;;;;;;10.80;8.23;;;;;;;-2.64;100.00;97770.06;5001365;28;20212;-71
2022/12/28 02:24:53;;;;;;;9.97;9.00;;;;;;;-2.70;100.00;97753.09;5004103;28;20201;-73
2022/12/28 02:27:49;;;;;;;10.07;9.17;;;;;;;-2.67;100.00;97749.47;5002172;28;20496;-71
2022/12/28 02:30:19;;;;;;;9.67;8.73;;;;;;;-2.68;100.00;97738.28;4991639;28;20467;-74
2022/12/28 02:32:54;;;;;;;9.70;8.90;;;;;;;-2.68;100.00;97738.28;4965500;28;20205;-71
2022/12/28 02:35:29;;;;;;;9.23;8.43;;;;;;;-2.70;100.00;97737.53;4986249;28;20455;-71
2022/12/28 02:38:00;;;;;;;11.17;9.87;;;;;;;-2.71;100.00;97741.03;5005788;28;20231;-73
2022/12/28 02:40:32;;;;;;;9.87;8.90;;;;;;;-2.71;100.00;97748.81;5002910;28;20216;-72
2022/12/28 02:43:01;;;;;;;13.30;9.53;;;;;;;-2.68;100.00;97742.59;5007070;28;22204;-72
2022/12/28 02:51:34;;;;;;;9.87;8.90;;;;;;;-2.84;100.00;97740.03;4998196;28;20196;-73
2022/12/28 02:57:36;;;;;;;11.67;9.30;;;;;;;-2.91;100.00;97726.59;5001893;28;20647;-72
2022/12/28 03:00:07;;;;;;;11.63;9.50;;;;;;;-2.91;100.00;97730.00;4982119;28;20912;-71
2022/12/28 03:02:47;;;;;;;10.77;9.67;;;;;;;-2.91;100.00;97727.41;4999762;28;20209;-74
2022/12/28 03:08:13;;;;;;;11.83;10.53;;;;;;;-2.92;100.00;97722.34;5003150;28;20678;-71
2022/12/28 03:08:18;;;;;;;10.17;9.13;;;;;;;-2.93;100.00;97713.72;4958128;28;20979;-69
2022/12/28 03:10:51;;;;;;;9.53;8.47;;;;;;;-2.87;100.00;97725.50;5004287;28;20205;-72
2022/12/28 03:16:13;;;;;;;10.50;9.50;;;;;;;-2.88;100.00;97712.59;4982242;28;20507;-71
2022/12/28 03:32:35;;;;;;;9.83;8.73;;;;;;;-2.91;100.00;97685.09;4988884;28;20209;-72
2022/12/28 03:35:04;;;;;;;11.10;10.00;;;;;;;-2.92;100.00;97694.63;4999860;28;20656;-72
2022/12/28 03:37:33;;;;;;;11.87;10.77;;;;;;;-2.92;100.00;97679.06;4997172;28;20230;-70
2022/12/28 03:40:06;;;;;;;10.63;9.73;;;;;;;-2.90;100.00;97673.81;4961896;28;20227;-72
2022/12/28 03:45:26;;;;;;;10.87;9.23;;;;;;;-2.92;100.00;97660.91;5001932;28;20457;-72
2022/12/28 03:48:15;;;;;;;10.97;9.97;;;;;;;-2.90;100.00;97658.25;4984069;28;20224;-71
2022/12/28 03:50:45;;;;;;;10.47;9.43;;;;;;;-2.89;100.00;97657.31;5002597;28;21005;-72
2022/12/28 03:53:13;;;;;;;9.90;9.00;;;;;;;-2.92;100.00;97650.53;4999131;28;20415;-72
2022/12/28 03:55:42;;;;;;;9.93;9.13;;;;;;;-2.91;100.00;97647.03;4960521;28;20209;-72
2022/12/28 03:58:10;;;;;;;10.20;9.20;;;;;;;-2.92;100.00;97640.16;5002122;28;20231;-71
2022/12/28 04:00:37;;;;;;;10.40;9.30;;;;;;;-2.85;100.00;97653.63;5003256;28;20291;-75
2022/12/28 04:03:05;;;;;;;11.20;10.10;;;;;;;-2.77;100.00;97655.78;4988667;28;20803;-72
2022/12/28 04:05:33;;;;;;;10.83;9.80;;;;;;;-2.76;100.00;97649.69;5003320;28;20481;-72
2022/12/28 04:08:02;;;;;;;11.30;10.37;;;;;;;-2.73;100.00;97651.25;4997509;28;20259;-71
2022/12/28 04:10:29;;;;;;;10.63;9.63;;;;;;;-2.75;100.00;97648.75;4961250;28;20212;-72
2022/12/28 04:12:57;;;;;;;9.30;8.50;;;;;;;-2.76;100.00;97634.13;4997501;28;20295;-73
2022/12/28 04:15:24;;;;;;;11.23;10.07;;;;;;;-2.77;100.00;97625.47;5001401;28;20204;-71
2022/12/28 04:17:52;;;;;;;11.53;10.07;;;;;;;-2.79;100.00;97621.34;5001797;28;20544;-73
2022/12/28 04:20:19;;;;;;;11.20;9.80;;;;;;;-2.82;100.00;97622.31;4988124;28;20208;-73
2022/12/28 04:22:47;;;;;;;11.33;10.17;;;;;;;-2.84;100.00;97628.50;5002160;28;20453;-71
2022/12/28 04:25:16;;;;;;;10.63;9.53;;;;;;;-2.88;100.00;97627.03;4999041;28;20413;-75
2022/12/28 04:27:43;;;;;;;11.70;10.60;;;;;;;-2.89;100.00;97631.41;4957910;28;20470;-75
2022/12/28 04:30:11;;;;;;;13.57;10.23;;;;;;;-2.87;100.00;97633.88;4999496;28;20204;-70
2022/12/28 04:32:39;;;;;;;12.50;10.97;;;;;;;-2.79;100.00;97636.91;5004373;28;20443;-73
2022/12/28 04:35:07;;;;;;;11.30;10.17;;;;;;;-2.75;100.00;97646.16;4983922;28;20696;-73
2022/12/28 04:37:36;;;;;;;12.00;10.90;;;;;;;-2.76;100.00;97636.72;5002011;28;20471;-73
2022/12/28 04:40:04;;;;;;;14.80;10.93;;;;;;;-2.70;100.00;97643.28;5004790;28;20208;-73
2022/12/28 04:42:33;;;;;;;13.07;11.77;;;;;;;-2.72;100.00;97627.81;4960284;28;20469;-72
2022/12/28 04:45:01;;;;;;;13.53;12.23;;;;;;;-2.70;100.00;97643.28;5001341;28;21131;-71
2022/12/28 04:47:28;;;;;;;12.23;11.03;;;;;;;-2.76;100.00;97639.31;5002476;28;20478;-73
2022/12/28 04:49:56;;;;;;;12.50;11.40;;;;;;;-2.79;100.00;97649.84;4985213;28;20204;-72
2022/12/28 04:52:24;;;;;;;13.27;12.03;;;;;;;-2.81;100.00;97649.94;4999812;28;20466;-69
2022/12/28 04:54:51;;;;;;;13.23;11.43;;;;;;;-2.84;100.00;97657.03;5003684;28;21041;-72
2022/12/28 04:57:19;;;;;;;15.67;11.37;;;;;;;-2.86;100.00;97651.97;4955645;28;20235;-73
2022/12/28 04:59:48;;;;;;;11.73;10.37;;;;;;;-2.90;100.00;97647.88;4952437;28;21431;-75
2022/12/28 05:02:16;;;;;;;12.50;11.30;;;;;;;-2.91;100.00;97636.66;4987582;28;20239;-74
2022/12/28 05:04:43;;;;;;;12.03;10.83;;;;;;;-2.92;100.00;97632.41;5000347;28;21325;-72
2022/12/28 05:07:11;;;;;;;13.57;11.93;;;;;;;-2.95;100.00;97622.19;4988524;28;20234;-73
2022/12/28 05:09:38;;;;;;;13.10;11.63;;;;;;;-2.99;100.00;97607.75;4996345;28;20201;-73
2022/12/28 05:12:06;;;;;;;17.07;13.03;;;;;;;-3.00;100.00;97613.84;4981008;28;20720;-68
2022/12/28 05:14:34;;;;;;;12.87;11.63;;;;;;;-2.95;100.00;97616.19;5000193;28;20439;-71
2022/12/28 05:17:05;;;;;;;13.50;12.03;;;;;;;-2.96;100.00;97612.75;4956760;28;20495;-72
2022/12/28 05:19:33;;;;;;;13.63;12.33;;;;;;;-2.84;100.00;97600.00;5003373;28;20231;-71
2022/12/28 05:22:00;;;;;;;15.70;13.00;;;;;;;-2.76;100.00;97610.78;4983383;28;20418;-69
2022/12/28 05:24:28;;;;;;;13.50;12.20;;;;;;;-2.67;100.00;97618.00;5007486;28;20204;-70
2022/12/28 05:26:55;;;;;;;16.10;12.87;;;;;;;-2.63;100.00;97627.28;4986968;28;20522;-70
2022/12/28 05:29:23;;;;;;;14.37;12.97;;;;;;;-2.55;100.00;97620.78;5005147;28;20461;-68
2022/12/28 05:31:50;;;;;;;15.53;14.13;;;;;;;-2.55;100.00;97611.25;4960231;28;20459;-68
2022/12/28 05:34:19;;;;;;;15.73;14.33;;;;;;;-2.52;100.00;97616.28;4997619;28;20209;-69
2022/12/28 05:36:47;;;;;;;15.93;14.23;;;;;;;-2.56;100.00;97608.75;4998185;28;20475;-69
2022/12/28 05:39:15;;;;;;;15.27;13.33;;;;;;;-2.52;100.00;97610.22;4989671;28;20224;-68
2022/12/28 05:41:43;;;;;;;14.57;13.13;;;;;;;-2.48;100.00;97611.72;5005773;28;20463;-69
2022/12/28 05:44:10;;;;;;;14.87;13.33;;;;;;;-2.44;100.00;97614.97;5007265;28;20426;-71
2022/12/28 05:46:38;;;;;;;14.83;13.33;;;;;;;-2.42;100.00;97603.59;4964798;28;20237;-68
2022/12/28 05:49:08;;;;;;;15.87;13.83;;;;;;;-2.43;100.00;97593.28;5005789;28;21077;-68
2022/12/28 05:51:37;;;;;;;14.87;13.33;;;;;;;-2.43;100.00;97591.53;5000697;28;20205;-67
2022/12/28 05:54:06;;;;;;;13.40;12.10;;;;;;;-2.43;100.00;97586.34;4988599;28;20683;-69
2022/12/28 05:56:34;;;;;;;14.87;13.37;;;;;;;-2.44;100.00;97581.25;5003823;28;20513;-67
2022/12/28 05:59:04;;;;;;;14.37;12.97;;;;;;;-2.42;100.00;97577.63;5001867;28;20249;-69
2022/12/28 06:01:33;;;;;;;14.50;13.20;;;;;;;-2.39;100.00;97569.66;4958854;28;20593;-68
2022/12/28 06:04:02;;;;;;;15.53;14.13;;;;;;;-2.36;100.00;97572.06;4983635;28;20779;-68
2022/12/28 06:06:30;;;;;;;18.42;16.63;;;;;;;-2.27;100.00;97575.03;5002763;28;20753;-68
2022/12/28 06:09:00;;;;;;;21.08;19.17;;;;;;;-2.25;100.00;97573.16;4986271;28;20754;-68
2022/12/28 06:11:29;;;;;;;17.33;15.63;;;;;;;-2.25;100.00;97570.56;4991585;28;20310;-70
2022/12/28 06:13:58;;;;;;;17.60;14.43;;;;;;;-2.22;100.00;97575.56;5002225;28;20731;-70
2022/12/28 06:16:28;;;;;;;15.87;14.40;;;;;;;-2.20;100.00;97582.34;4999345;28;20200;-68
2022/12/28 06:18:56;;;;;;;17.07;14.60;;;;;;;-2.19;100.00;97583.16;4973655;28;20437;-69
2022/12/28 06:21:26;;;;;;;15.93;14.27;;;;;;;-2.19;100.00;97580.56;4984269;28;20402;-69
2022/12/28 06:23:56;;;;;;;15.03;13.63;;;;;;;-2.20;100.00;97586.69;5007686;28;20786;-70
2022/12/28 06:26:26;;;;;;;14.40;13.00;;;;;;;-2.13;100.00;97594.94;4974142;28;20537;-71
2022/12/28 06:28:54;;;;;;;14.77;13.37;;;;;;;-2.18;100.00;97590.03;5009836;28;20538;-71
2022/12/28 06:31:23;;;;;;;15.60;12.83;;;;;;;-2.22;100.00;97586.81;5001377;28;20213;-69
2022/12/28 06:33:53;;;;;;;15.63;14.00;;;;;;;-2.19;100.00;97577.97;4973607;28;20306;-71
2022/12/28 06:36:22;;;;;;;16.03;14.40;;;;;;;-2.16;100.00;97585.56;5000208;28;20204;-69
2022/12/28 06:38:51;;;;;;;15.67;14.00;;;;;;;-2.09;100.00;97586.03;4996056;28;20602;-68
2022/12/28 06:41:20;;;;;;;15.47;14.00;;;;;;;-2.04;100.00;97577.06;4990033;28;20512;-68
2022/12/28 06:43:50;;;;;;;16.57;14.87;;;;;;;-2.04;100.00;97589.19;5005028;28;20208;-71
2022/12/28 06:46:19;;;;;;;18.17;16.27;;;;;;;-2.01;100.00;97593.38;5002688;28;20462;-68
2022/12/28 06:48:47;;;;;;;20.97;14.30;;;;;;;-1.96;100.00;97586.94;4965157;28;20224;-69
2022/12/28 06:51:15;;;;;;;17.80;16.00;;;;;;;-1.95;100.00;97583.41;4998171;28;20443;-71
2022/12/28 06:53:43;;;;;;;16.40;14.50;;;;;;;-1.94;100.00;97572.09;5005693;28;20208;-72
2022/12/28 06:56:13;;;;;;;16.90;15.30;;;;;;;-1.88;100.00;97572.66;4993065;28;20204;-68
2022/12/28 06:58:41;;;;;;;23.03;19.53;;;;;;;-1.86;100.00;97570.81;5001292;28;20805;-70
2022/12/28 07:01:12;;;;;;;23.43;20.97;;;;;;;-1.81;100.00;97568.75;5006512;28;20620;-68
2022/12/28 07:03:40;;;;;;;17.63;15.83;;;;;;;-1.83;100.00;97568.00;4966851;28;20209;-70
2022/12/28 07:06:08;;;;;;;15.77;14.17;;;;;;;-1.82;100.00;97580.88;5007264;28;20227;-66
2022/12/28 07:08:36;;;;;;;16.47;14.93;;;;;;;-1.78;100.00;97584.97;4937932;28;20258;-69
2022/12/28 07:11:04;;;;;;;16.33;14.73;;;;;;;-1.78;100.00;97589.34;4989326;28;20765;-71
2022/12/28 07:13:32;;;;;;;17.63;15.67;;;;;;;-1.73;100.00;97584.69;4987219;28;20703;-68
2022/12/28 07:16:02;;;;;;;18.43;16.53;;;;;;;-1.73;100.00;97579.47;4982371;28;20555;-69
2022/12/28 07:18:31;;;;;;;17.60;15.90;;;;;;;-1.67;100.00;97583.47;4984774;28;20760;-70
2022/12/28 07:21:00;;;;;;;18.00;16.20;;;;;;;-1.64;100.00;97581.50;5007730;28;20231;-71
2022/12/28 07:23:30;;;;;;;17.13;15.47;;;;;;;-1.62;100.00;97573.63;4936846;28;20212;-68
2022/12/28 07:25:58;;;;;;;16.13;14.60;;;;;;;-1.62;100.00;97571.84;4989028;28;21068;-69
2022/12/28 07:28:25;;;;;;;16.63;15.13;;;;;;;-1.60;100.00;97571.75;5005175;28;20220;-67
2022/12/28 07:30:53;;;;;;;17.00;15.30;;;;;;;-1.63;100.00;97567.56;4984159;28;20532;-70
2022/12/28 07:33:21;;;;;;;19.10;16.07;;;;;;;-1.60;100.00;97559.56;5002208;28;20623;-66
2022/12/28 07:35:50;;;;;;;16.73;15.13;;;;;;;-1.65;100.00;97560.81;5004404;28;20205;-70
2022/12/28 07:38:17;;;;;;;16.73;15.03;;;;;;;-1.72;100.00;97557.75;4967424;28;20237;-71
2022/12/28 07:40:48;;;;;;;16.00;14.50;;;;;;;-1.73;100.00;97561.28;5001634;28;20605;-70
2022/12/28 07:43:15;;;;;;;16.57;14.93;;;;;;;-1.74;100.00;97564.81;5007708;28;20470;-72
2022/12/28 07:45:43;;;;;;;17.87;15.97;;;;;;;-1.77;100.00;97563.25;4967928;28;20220;-69
2022/12/28 07:48:10;;;;;;;17.17;15.37;;;;;;;-1.76;100.00;97549.31;5006405;28;20231;-71
2022/12/28 07:50:38;;;;;;;16.93;15.43;;;;;;;-1.76;100.00;97548.50;5003191;28;20206;-70
2022/12/28 07:53:07;;;;;;;18.37;16.67;;;;;;;-1.70;100.00;97557.69;4960871;28;20307;-70
2022/12/28 07:55:35;;;;;;;16.00;14.47;;;;;;;-1.61;100.00;97557.91;5001125;28;20200;-69
2022/12/28 07:58:02;;;;;;;16.87;15.13;;;;;;;-1.58;100.00;97549.09;5007133;28;20224;-72
2022/12/28 08:00:30;;;;;;;17.00;15.33;;;;;;;-1.55;100.00;97543.69;4980879;28;20627;-69
2022/12/28 08:02:57;;;;;;;17.33;15.60;;;;;;;-1.54;100.00;97542.75;4993372;28;20242;-70
2022/12/28 08:05:25;;;;;;;16.00;14.50;;;;;;;-1.43;100.00;97542.06;4999569;28;20204;-69
2022/12/28 08:07:53;;;;;;;16.87;15.37;;;;;;;-1.42;100.00;97542.91;4997226;28;20279;-71
2022/12/28 08:10:27;;;;;;;17.27;15.47;;;;;;;-1.35;100.00;97528.56;4963306;28;20630;-69
2022/12/28 08:12:55;;;;;;;15.57;14.07;;;;;;;-1.31;100.00;97538.66;4999755;28;20843;-70
2022/12/28 08:15:23;;;;;;;17.33;15.37;;;;;;;-1.31;100.00;97530.03;4986853;28;20208;-69
2022/12/28 08:17:50;;;;;;;16.97;15.37;;;;;;;-1.13;100.00;97530.59;4989505;28;20232;-71
2022/12/28 08:20:18;;;;;;;16.40;14.70;;;;;;;-1.02;100.00;97525.50;5001472;28;20563;-69
2022/12/28 08:22:45;;;;;;;17.70;16.00;;;;;;;-0.82;100.00;97530.31;4996665;28;20381;-68
2022/12/28 08:25:13;;;;;;;16.07;14.50;;;;;;;-0.71;100.00;97519.19;4962857;28;20482;-69
2022/12/28 08:27:42;;;;;;;16.83;15.17;;;;;;;-0.65;100.00;97523.97;4999147;28;20234;-66
2022/12/28 08:30:11;;;;;;;17.83;15.90;;;;;;;-0.72;100.00;97523.53;5005485;28;20231;-69
2022/12/28 08:32:39;;;;;;;15.50;13.90;;;;;;;-0.81;100.00;97518.97;4965322;28;20208;-68
2022/12/28 08:35:07;;;;;;;15.30;13.90;;;;;;;-0.81;100.00;97516.34;5005396;28;20204;-69
2022/12/28 08:37:34;;;;;;;15.60;14.03;;;;;;;-0.76;100.00;97522.06;5000460;28;20223;-68
2022/12/28 08:40:02;;;;;;;14.37;12.93;;;;;;;-0.75;100.00;97527.19;4968603;28;20394;-72
2022/12/28 08:42:30;;;;;;;14.53;13.07;;;;;;;-0.77;100.00;97531.63;4999239;28;20607;-68
2022/12/28 08:44:58;;;;;;;14.90;13.40;;;;;;;-0.75;100.00;97531.56;5004592;28;20429;-70
2022/12/28 08:47:26;;;;;;;14.33;13.00;;;;;;;-0.71;100.00;97525.19;4982571;28;20224;-69
2022/12/28 08:49:54;;;;;;;13.47;12.33;;;;;;;-0.69;100.00;97530.31;4993916;28;20500;-69
2022/12/28 08:52:23;;;;;;;13.30;11.93;;;;;;;-0.64;100.00;97529.03;5000417;28;20238;-69
2022/12/28 08:54:51;;;;;;;12.83;11.63;;;;;;;-0.59;100.00;97532.16;4961102;28;20452;-70
2022/12/28 08:57:18;;;;;;;13.00;11.70;;;;;;;-0.51;100.00;97528.22;5007303;28;20278;-69
2022/12/28 08:59:46;;;;;;;13.03;11.93;;;;;;;-0.47;100.00;97527.88;5004460;28;20644;-69
2022/12/28 09:02:15;;;;;;;13.40;12.20;;;;;;;-0.44;100.00;97522.47;4993118;28;20224;-69
2022/12/28 09:04:42;;;;;;;12.77;11.47;;;;;;;-0.28;100.00;97518.81;4988659;28;20204;-68
2022/12/28 09:07:10;;;;;;;12.90;11.70;;;;;;;-0.20;100.00;97516.50;5002973;28;20229;-71
2022/12/28 09:09:37;;;;;;;12.97;11.77;;;;;;;-0.18;100.00;97514.59;5005724;28;20205;-67
2022/12/28 09:12:06;;;;;;;13.43;12.33;;;;;;;-0.13;100.00;97513.44;4970348;28;20216;-69
2022/12/28 09:14:33;;;;;;;12.60;11.40;;;;;;;-0.17;100.00;97513.66;5005041;28;20990;-69
2022/12/28 09:17:01;;;;;;;12.20;10.20;;;;;;;-0.17;100.00;97510.25;4961992;28;20224;-69
2022/12/28 09:19:30;;;;;;;10.80;9.70;;;;;;;-0.04;100.00;97504.97;4989731;28;20754;-71
2022/12/28 09:21:57;;;;;;;10.77;9.67;;;;;;;0.06;100.00;97505.16;5002545;28;20223;-71
2022/12/28 09:24:25;;;;;;;11.00;9.90;;;;;;;0.07;100.00;97493.78;4993051;28;20204;-69
2022/12/28 09:26:54;;;;;;;10.90;9.87;;;;;;;0.16;100.00;97495.72;5004112;28;20228;-71
2022/12/28 09:29:21;;;;;;;10.30;9.50;;;;;;;0.19;100.00;97507.72;5008287;28;20208;-69
2022/12/28 09:31:49;;;;;;;11.40;10.40;;;;;;;0.17;100.00;97500.00;4964604;28;20584;-71
2022/12/28 09:34:17;;;;;;;10.00;9.20;;;;;;;0.18;100.00;97504.25;5004488;28;20216;-69
2022/12/28 09:37:06;;;;;;;10.53;9.63;;;;;;;0.17;100.00;97502.59;5004842;28;20771;-68
2022/12/28 09:39:33;;;;;;;10.43;9.53;;;;;;;0.23;100.00;97502.19;4992855;28;20818;-70
2022/12/28 09:42:03;;;;;;;9.90;9.10;;;;;;;0.37;100.00;97505.56;5005799;28;20227;-70
2022/12/28 09:44:38;;;;;;;10.33;9.40;;;;;;;0.45;100.00;97498.00;5006912;28;20201;-71
2022/12/28 09:47:16;;;;;;;9.00;8.30;;;;;;;0.55;100.00;97513.81;4969271;28;20270;-68
2022/12/28 09:49:46;;;;;;;9.73;8.73;;;;;;;0.62;100.00;97506.38;5005010;28;20204;-71
2022/12/28 09:52:26;;;;;;;9.97;9.07;;;;;;;0.68;100.00;97506.72;5004431;28;20207;-69
2022/12/28 09:54:53;;;;;;;9.90;8.77;;;;;;;0.70;100.00;97494.41;4995595;28;20917;-70
2022/12/28 09:57:22;;;;;;;9.47;8.67;;;;;;;0.78;100.00;97493.84;5002250;28;20584;-69
2022/12/28 09:59:52;;;;;;;9.17;8.47;;;;;;;0.76;100.00;97485.31;5002348;28;20544;-71
2022/12/28 10:02:23;;;;;;;9.63;8.73;;;;;;;0.74;100.00;97488.97;4967381;28;20243;-69
2022/12/28 10:04:51;;;;;;;8.93;8.23;;;;;;;0.77;100.00;97484.34;5002628;28;21026;-70
2022/12/28 10:07:19;;;;;;;9.10;8.20;;;;;;;0.85;100.00;97475.97;5004358;28;20228;-68
2022/12/28 10:09:48;;;;;;;9.20;8.30;;;;;;;0.90;100.00;97478.22;5007528;28;20216;-70
2022/12/28 10:12:17;;;;;;;8.53;7.57;;;;;;;0.97;100.00;97469.00;4990771;28;20267;-69
2022/12/28 10:14:45;;;;;;;7.90;7.40;;;;;;;1.06;100.00;97468.28;5004715;28;20207;-70
2022/12/28 10:17:15;;;;;;;8.53;7.83;;;;;;;1.30;100.00;97462.13;4980876;28;20243;-69
2022/12/28 10:19:45;;;;;;;8.30;7.60;;;;;;;1.51;100.00;97462.22;4997407;28;20216;-71
2022/12/28 10:22:15;;;;;;;8.70;8.00;;;;;;;1.69;100.00;97449.50;5004497;28;20224;-68
2022/12/28 10:24:43;;;;;;;7.70;7.10;;;;;;;1.82;100.00;97446.75;5005857;28;20204;-70
2022/12/28 10:27:17;;;;;;;7.73;7.13;;;;;;;2.02;100.00;97434.69;4992309;28;20234;-69
2022/12/28 10:29:45;;;;;;;7.60;7.00;;;;;;;2.05;100.00;97435.41;5009028;28;20196;-69
2022/12/28 10:32:13;;;;;;;7.17;6.50;;;;;;;2.07;100.00;97423.88;4982830;28;20240;-69
2022/12/28 10:34:54;;;;;;;6.57;5.97;;;;;;;2.04;100.00;97431.97;4994614;28;20216;-68
2022/12/28 10:37:21;;;;;;;7.03;6.47;;;;;;;2.03;100.00;97430.31;4998991;28;20224;-67
2022/12/28 10:39:50;;;;;;;6.77;6.20;;;;;;;2.00;100.00;97423.53;5008580;28;20317;-70
2022/12/28 10:42:25;;;;;;;5.93;5.43;;;;;;;2.05;100.00;97424.94;4987074;28;20237;-70
2022/12/28 10:44:57;;;;;;;6.80;6.30;;;;;;;1.99;100.00;97421.88;5005915;28;20298;-69
2022/12/28 10:47:30;;;;;;;6.33;5.93;;;;;;;2.05;100.00;97425.78;5004237;28;20224;-71
2022/12/28 10:49:57;;;;;;;7.13;6.53;;;;;;;2.00;100.00;97420.94;4968258;28;20212;-71
2022/12/28 10:52:56;;;;;;;6.70;6.00;;;;;;;1.91;100.00;97411.22;5000714;28;20746;-70
2022/12/28 10:55:28;;;;;;;5.97;5.47;;;;;;;1.91;100.00;97407.78;5003525;28;20207;-71
2022/12/28 10:58:15;;;;;;;6.60;6.10;;;;;;;1.78;100.00;97400.09;4992095;28;20232;-71
2022/12/28 11:00:58;;;;;;;6.03;5.63;;;;;;;1.83;100.00;97390.94;4997604;28;20263;-70
2022/12/28 11:03:28;;;;;;;6.40;6.00;;;;;;;1.85;100.00;97391.63;5001893;28;20419;-71
2022/12/28 11:06:14;;;;;;;5.87;5.40;;;;;;;1.93;100.00;97393.63;4967544;28;20304;-70
2022/12/28 11:08:43;;;;;;;7.50;6.43;;;;;;;1.84;100.00;97394.38;5005268;28;20224;-71
2022/12/28 11:11:19;;;;;;;6.67;6.17;;;;;;;1.92;100.00;97384.13;4998994;28;20557;-68
2022/12/28 11:13:51;;;;;;;6.10;5.70;;;;;;;1.78;100.00;97382.63;5010025;28;20203;-71
2022/12/28 11:16:19;;;;;;;6.63;6.10;;;;;;;1.76;100.00;97384.53;4998817;28;20209;-68
2022/12/28 11:18:47;;;;;;;6.80;6.27;;;;;;;1.75;100.00;97382.06;5011458;28;20205;-67
2022/12/28 11:21:18;;;;;;;7.20;6.60;;;;;;;1.75;100.00;97376.84;4967420;28;20216;-67
2022/12/28 11:23:46;;;;;;;6.47;6.00;;;;;;;1.62;100.00;97367.34;4871940;28;21097;-67
2022/12/28 11:26:14;;;;;;;6.83;6.30;;;;;;;1.55;100.00;97368.81;4743266;28;20289;-69
2022/12/28 11:28:44;;;;;;;7.37;6.80;;;;;;;1.59;100.00;97365.00;4746024;28;21150;-68
2022/12/28 11:31:19;;;;;;;6.90;6.40;;;;;;;1.53;100.00;97365.50;4754438;28;20220;-68
2022/12/28 11:33:49;;;;;;;7.50;6.93;;;;;;;1.42;100.00;97350.66;4746365;28;20843;-68
2022/12/28 11:36:20;;;;;;;6.90;6.40;;;;;;;1.44;100.00;97347.00;4749353;28;21268;-67
2022/12/28 11:38:49;;;;;;;7.50;6.80;;;;;;;1.49;100.00;97343.19;4755016;28;20637;-66
2022/12/28 11:41:42;;;;;;;7.57;7.07;;;;;;;1.53;100.00;97339.38;4795504;28;20473;-69
2022/12/28 11:44:50;;;;;;;8.03;7.23;;;;;;;1.51;100.00;97347.31;4995000;28;20297;-71
2022/12/28 11:47:31;;;;;;;7.43;6.93;;;;;;;1.49;100.00;97337.97;4984918;28;20505;-70
2022/12/28 11:50:38;;;;;;;7.87;7.23;;;;;;;1.48;100.00;97326.66;5000787;28;20493;-69
2022/12/28 11:53:20;;;;;;;7.93;7.33;;;;;;;1.55;100.00;97327.03;4996951;28;20213;-69
2022/12/28 11:56:04;;;;;;;7.10;6.60;;;;;;;1.58;100.00;97327.63;5001124;28;20659;-68
2022/12/28 11:59:03;;;;;;;9.67;7.40;;;;;;;1.68;100.00;97312.00;4964504;28;20238;-71
2022/12/28 12:01:53;;;;;;;7.70;7.00;;;;;;;1.80;100.00;97307.56;5002877;28;20210;-69